Time;durP1;ratioP1;P1;durP2;ratioP2;P2;SDS_P1;SDS_P2;PMS_P1;PMS_P2;Temp;Humidity;BMP_temperature;BMP_pressure;BME280_temperature;BME280_humidity;BME280_pressure;Samples;Min_cycle;Max_cycle;Signal;HPM_P1;HPM_P2
2022/12/14 00:00:44;;;;;;;30.77;13.05;;;-0.20;99.90;;;;;;5027985;28;20030;-67
2022/12/14 00:03:11;;;;;;;33.63;13.55;;;-0.20;99.90;;;;;;5028712;28;20838;-68
2022/12/14 00:05:36;;;;;;;29.27;13.48;;;-0.10;99.90;;;;;;5026078;28;20473;-68
2022/12/14 00:08:03;;;;;;;25.75;13.80;;;-0.20;99.90;;;;;;5026938;28;20103;-68
2022/12/14 00:10:28;;;;;;;25.88;12.85;;;-0.20;99.90;;;;;;5028754;28;20061;-67
2022/12/14 00:12:54;;;;;;;28.63;13.40;;;-0.10;99.90;;;;;;5024200;28;20068;-68
2022/12/14 00:15:20;;;;;;;24.33;12.77;;;-0.20;99.90;;;;;;5029139;28;20073;-67
2022/12/14 00:17:45;;;;;;;25.23;12.70;;;-0.20;99.90;;;;;;5026329;28;20052;-68
2022/12/14 00:20:11;;;;;;;27.73;13.93;;;-0.20;99.90;;;;;;5029233;28;20037;-68
2022/12/14 00:22:36;;;;;;;28.70;13.65;;;-0.10;99.90;;;;;;5028542;28;20466;-68
2022/12/14 00:25:03;;;;;;;30.52;13.90;;;-0.20;99.90;;;;;;5027886;28;20029;-67
2022/12/14 00:27:28;;;;;;;27.20;13.23;;;-0.10;99.90;;;;;;5025985;28;20026;-68
2022/12/14 00:29:54;;;;;;;30.20;14.50;;;-0.10;99.90;;;;;;5024193;28;20390;-68
2022/12/14 00:32:20;;;;;;;26.55;13.55;;;-0.20;99.90;;;;;;5026216;28;20040;-67
2022/12/14 00:34:45;;;;;;;27.55;13.23;;;-0.10;99.90;;;;;;5028485;28;20037;-67
2022/12/14 00:37:11;;;;;;;27.23;12.85;;;-0.10;99.90;;;;;;5022295;28;20083;-67
2022/12/14 00:39:37;;;;;;;27.70;13.95;;;-0.10;99.90;;;;;;5028251;28;20108;-67
2022/12/14 00:42:02;;;;;;;30.88;14.60;;;0.00;99.90;;;;;;5024689;28;20033;-67
2022/12/14 00:44:28;;;;;;;27.70;13.13;;;0.00;99.90;;;;;;5026372;28;20021;-68
2022/12/14 00:46:53;;;;;;;27.48;13.63;;;0.00;99.90;;;;;;5030520;28;20061;-68
2022/12/14 00:49:19;;;;;;;29.23;13.60;;;0.00;99.90;;;;;;5028775;28;20497;-68
2022/12/14 00:51:45;;;;;;;26.25;12.60;;;0.10;99.90;;;;;;5027830;28;20033;-67
2022/12/14 00:54:10;;;;;;;27.35;12.73;;;0.10;99.90;;;;;;5028491;28;20021;-68
2022/12/14 00:56:36;;;;;;;28.00;13.80;;;0.00;99.90;;;;;;5027414;28;20030;-67
2022/12/14 00:59:01;;;;;;;32.63;13.80;;;0.00;99.90;;;;;;5028714;28;20029;-68
2022/12/14 01:01:29;;;;;;;27.30;14.05;;;0.00;99.90;;;;;;5027787;28;20052;-67
2022/12/14 01:04:15;;;;;;;29.98;14.38;;;-0.10;99.90;;;;;;5027978;28;20033;-67
2022/12/14 01:06:42;;;;;;;28.98;14.10;;;-0.10;99.90;;;;;;5022825;28;20508;-67
2022/12/14 01:09:07;;;;;;;29.77;13.73;;;-0.10;99.90;;;;;;5024878;28;20060;-68
2022/12/14 01:11:34;;;;;;;28.02;13.50;;;-0.20;99.90;;;;;;5024915;28;20065;-67
2022/12/14 01:14:00;;;;;;;25.35;13.55;;;-0.30;99.90;;;;;;5023641;28;20033;-67
2022/12/14 01:16:25;;;;;;;25.27;12.90;;;-0.30;99.90;;;;;;5027558;28;20030;-68
2022/12/14 01:18:51;;;;;;;29.30;13.63;;;-0.20;99.90;;;;;;5025251;28;20043;-67
2022/12/14 01:21:19;;;;;;;24.23;11.82;;;-0.20;99.90;;;;;;5028693;28;20033;-68
2022/12/14 01:23:46;;;;;;;25.00;12.55;;;-0.20;99.90;;;;;;5028682;28;20100;-67
2022/12/14 01:26:14;;;;;;;24.80;11.43;;;-0.30;99.90;;;;;;5025643;28;20060;-68
2022/12/14 01:28:40;;;;;;;28.70;12.55;;;-0.20;99.90;;;;;;5028457;28;20364;-67
2022/12/14 01:31:08;;;;;;;27.25;12.93;;;-0.20;99.90;;;;;;5024493;28;20497;-68
2022/12/14 01:33:34;;;;;;;22.50;12.02;;;-0.20;99.90;;;;;;5025601;28;20069;-68
2022/12/14 01:36:08;;;;;;;26.27;12.68;;;-0.20;99.90;;;;;;5027426;28;20064;-67
2022/12/14 01:38:34;;;;;;;27.02;12.55;;;-0.30;99.90;;;;;;5027310;28;20445;-67
2022/12/14 01:41:00;;;;;;;26.20;12.52;;;-0.30;99.90;;;;;;5030703;28;20499;-67
2022/12/14 01:43:54;;;;;;;24.63;12.35;;;-0.30;99.90;;;;;;5027638;28;20091;-67
2022/12/14 01:46:27;;;;;;;23.30;11.73;;;-0.30;99.90;;;;;;5026624;28;20092;-67
2022/12/14 01:49:02;;;;;;;24.80;11.68;;;-0.30;99.90;;;;;;5028213;28;20032;-67
2022/12/14 01:51:30;;;;;;;26.35;12.55;;;-0.30;99.90;;;;;;5029333;28;20013;-67
2022/12/14 01:53:58;;;;;;;31.63;13.98;;;-0.20;99.90;;;;;;5027590;28;20022;-67
2022/12/14 01:56:24;;;;;;;25.65;12.77;;;-0.20;99.90;;;;;;5021805;28;20017;-68
2022/12/14 01:58:50;;;;;;;26.52;12.10;;;-0.20;99.90;;;;;;5029837;28;20108;-67
2022/12/14 02:01:15;;;;;;;29.27;12.88;;;-0.20;99.90;;;;;;5030833;28;20101;-68
2022/12/14 02:03:46;;;;;;;26.33;12.50;;;-0.10;99.90;;;;;;5031759;28;20474;-67
2022/12/14 02:06:21;;;;;;;26.77;13.38;;;-0.10;99.90;;;;;;5026290;28;20029;-68
2022/12/14 02:08:49;;;;;;;27.63;13.63;;;0.00;99.90;;;;;;5040721;28;20116;-67
2022/12/14 02:11:25;;;;;;;27.10;13.20;;;0.00;99.90;;;;;;5025591;28;20026;-67
2022/12/14 02:13:50;;;;;;;27.95;13.32;;;-0.10;99.90;;;;;;5028037;28;20149;-68
2022/12/14 02:16:16;;;;;;;24.30;12.55;;;-0.10;99.90;;;;;;5029340;28;20482;-68
2022/12/14 02:18:42;;;;;;;27.85;12.30;;;-0.10;99.90;;;;;;5029673;28;20025;-67
2022/12/14 02:21:35;;;;;;;27.10;12.48;;;-0.10;99.90;;;;;;5023092;28;20029;-67
2022/12/14 02:24:36;;;;;;;26.70;12.73;;;-0.10;99.90;;;;;;5027718;28;20113;-67
2022/12/14 02:27:16;;;;;;;22.67;11.85;;;-0.10;99.90;;;;;;5030513;28;20367;-68
2022/12/14 02:29:57;;;;;;;26.75;13.65;;;-0.20;99.90;;;;;;5033071;28;20033;-67
2022/12/14 02:32:25;;;;;;;26.50;13.32;;;-0.10;99.90;;;;;;5028760;28;20010;-67
2022/12/14 02:35:11;;;;;;;32.40;13.95;;;-0.20;99.90;;;;;;5023735;28;20034;-67
2022/12/14 02:38:19;;;;;;;25.80;13.27;;;-0.20;99.90;;;;;;5022433;28;20124;-67
2022/12/14 02:41:00;;;;;;;26.65;13.20;;;-0.30;99.90;;;;;;5019081;28;20052;-67
2022/12/14 02:43:31;;;;;;;26.77;13.33;;;-0.20;99.90;;;;;;5040683;28;20386;-67
2022/12/14 02:46:37;;;;;;;28.20;12.70;;;-0.20;99.90;;;;;;5022840;28;20036;-67
2022/12/14 02:49:10;;;;;;;24.15;11.95;;;-0.20;99.90;;;;;;5029813;28;20029;-67
2022/12/14 02:51:54;;;;;;;21.63;12.02;;;-0.40;99.90;;;;;;5024961;28;20026;-67
2022/12/14 02:54:30;;;;;;;27.10;12.60;;;-0.30;99.90;;;;;;5024800;28;20036;-67
2022/12/14 02:57:06;;;;;;;30.02;13.07;;;-0.20;99.90;;;;;;5025604;28;20021;-67
2022/12/14 02:59:32;;;;;;;29.35;13.32;;;-0.20;99.90;;;;;;5021018;28;20041;-67
2022/12/14 03:02:00;;;;;;;24.90;12.02;;;-0.20;99.90;;;;;;5027869;28;20018;-67
2022/12/14 03:04:26;;;;;;;26.15;11.80;;;-0.20;99.90;;;;;;5024385;28;20030;-67
2022/12/14 03:07:01;;;;;;;25.58;11.57;;;-0.20;99.90;;;;;;5024977;28;20091;-67
2022/12/14 03:09:30;;;;;;;25.83;12.95;;;-0.30;99.90;;;;;;5029432;28;20095;-67
2022/12/14 03:12:01;;;;;;;28.15;12.32;;;-0.30;99.90;;;;;;5022023;28;20041;-68
2022/12/14 03:14:41;;;;;;;25.52;11.52;;;-0.30;99.90;;;;;;5027922;28;20478;-68
2022/12/14 03:17:11;;;;;;;22.30;12.15;;;-0.30;99.90;;;;;;5030536;28;20485;-67
2022/12/14 03:19:43;;;;;;;29.13;11.57;;;-0.20;99.90;;;;;;5033411;28;20026;-68
2022/12/14 03:22:26;;;;;;;24.33;11.43;;;-0.20;99.90;;;;;;5024152;28;20125;-67
2022/12/14 03:24:57;;;;;;;27.65;11.85;;;-0.10;99.90;;;;;;5028107;28;20101;-67
2022/12/14 03:27:28;;;;;;;25.23;12.57;;;-0.10;99.90;;;;;;5033094;28;20142;-67
2022/12/14 03:30:17;;;;;;;24.67;11.48;;;-0.10;99.90;;;;;;5023541;28;20030;-67
2022/12/14 03:32:49;;;;;;;24.55;11.35;;;-0.10;99.90;;;;;;5027862;28;20044;-67
2022/12/14 03:35:43;;;;;;;23.53;11.83;;;-0.10;99.90;;;;;;5030806;28;20025;-68
2022/12/14 03:38:41;;;;;;;22.63;11.25;;;-0.10;99.90;;;;;;5025859;28;20029;-67
2022/12/14 03:41:26;;;;;;;27.08;12.00;;;-0.10;99.90;;;;;;5029637;28;20030;-67
2022/12/14 03:44:31;;;;;;;23.85;12.18;;;-0.10;99.90;;;;;;5025827;28;20060;-68
2022/12/14 03:47:18;;;;;;;21.23;10.88;;;-0.10;99.90;;;;;;5021170;28;20029;-68
2022/12/14 03:49:50;;;;;;;27.88;12.40;;;-0.10;99.90;;;;;;5028259;28;20108;-67
2022/12/14 03:52:32;;;;;;;21.83;11.07;;;-0.10;99.90;;;;;;5023525;28;20036;-67
2022/12/14 03:55:44;;;;;;;24.70;11.75;;;-0.10;99.90;;;;;;5024642;28;20029;-68
2022/12/14 03:58:12;;;;;;;23.90;12.60;;;0.00;99.90;;;;;;5027088;28;20105;-67
2022/12/14 04:01:04;;;;;;;26.15;12.82;;;0.00;99.90;;;;;;5031474;28;20079;-67
2022/12/14 04:03:59;;;;;;;25.15;12.18;;;0.00;99.90;;;;;;5031131;28;20398;-67
2022/12/14 04:06:39;;;;;;;23.33;11.98;;;0.00;99.90;;;;;;5025625;28;20112;-68
2022/12/14 04:09:24;;;;;;;27.70;12.15;;;0.00;99.90;;;;;;5022349;28;20037;-67
2022/12/14 04:20:54;;;;;;;20.85;11.35;;;0.00;99.90;;;;;;5028677;28;20053;-67
2022/12/14 04:26:45;;;;;;;23.33;11.60;;;-0.10;99.90;;;;;;5019899;28;20030;-67
2022/12/14 04:32:08;;;;;;;23.90;11.68;;;0.00;99.90;;;;;;5034276;28;20036;-67
2022/12/14 04:34:34;;;;;;;23.48;11.48;;;0.00;99.90;;;;;;5025623;28;20017;-67
2022/12/14 04:37:07;;;;;;;26.27;12.45;;;0.00;99.90;;;;;;5025623;28;20017;-68
2022/12/14 04:39:42;;;;;;;;;;;0.00;99.90;;;;;;5029551;28;20766;-68
2022/12/14 04:42:09;;;;;;;31.58;11.80;;;0.00;99.90;;;;;;5024883;28;20385;-68
2022/12/14 04:44:41;;;;;;;19.27;10.32;;;0.00;99.90;;;;;;5027186;28;20041;-68
2022/12/14 04:47:09;;;;;;;24.38;11.95;;;0.00;99.90;;;;;;5029291;28;20033;-68
2022/12/14 04:49:55;;;;;;;24.40;12.00;;;0.00;99.90;;;;;;5027699;28;20032;-68
2022/12/14 04:52:53;;;;;;;23.58;11.75;;;0.00;99.90;;;;;;5028771;28;20446;-68
2022/12/14 04:55:24;;;;;;;24.55;12.20;;;0.10;99.90;;;;;;5024764;28;20068;-68
2022/12/14 04:57:56;;;;;;;25.87;12.00;;;0.00;99.90;;;;;;5023941;28;20492;-68
2022/12/14 05:00:22;;;;;;;25.02;12.05;;;0.10;99.90;;;;;;5028397;28;20049;-68
2022/12/14 05:03:06;;;;;;;25.15;11.68;;;0.10;99.90;;;;;;5028613;28;20500;-68
2022/12/14 05:05:57;;;;;;;24.52;11.48;;;0.00;99.90;;;;;;5027030;28;20037;-68
2022/12/14 05:08:58;;;;;;;25.42;11.45;;;0.10;99.90;;;;;;5022992;28;20048;-67
2022/12/14 05:11:29;;;;;;;28.85;12.88;;;0.00;99.90;;;;;;5024544;28;20049;-68
2022/12/14 05:13:54;;;;;;;22.52;11.48;;;0.00;99.90;;;;;;5039237;28;20037;-68
2022/12/14 05:16:23;;;;;;;24.10;10.98;;;0.00;99.90;;;;;;5030738;28;20121;-68
2022/12/14 05:18:49;;;;;;;21.90;11.27;;;0.00;99.90;;;;;;5027701;28;20469;-68
2022/12/14 05:24:01;;;;;;;24.90;12.75;;;0.00;99.90;;;;;;5016267;28;20032;-68
2022/12/14 05:26:27;;;;;;;23.60;11.57;;;0.00;99.90;;;;;;5023477;28;20052;-68
2022/12/14 05:28:53;;;;;;;22.25;11.18;;;0.00;99.90;;;;;;5021417;28;20474;-68
2022/12/14 05:31:18;;;;;;;23.00;10.98;;;0.00;99.90;;;;;;5024487;28;20124;-68
2022/12/14 05:33:44;;;;;;;26.30;11.90;;;0.00;99.90;;;;;;5027236;28;20021;-68
2022/12/14 05:36:10;;;;;;;21.25;11.02;;;0.00;99.90;;;;;;5022436;28;20028;-68
2022/12/14 05:38:36;;;;;;;18.98;10.00;;;0.00;99.90;;;;;;5025502;28;20144;-68
2022/12/14 05:41:01;;;;;;;27.52;10.85;;;0.00;99.90;;;;;;5018672;28;20025;-68
2022/12/14 05:43:27;;;;;;;22.70;11.15;;;0.00;99.90;;;;;;5027716;28;20025;-68
2022/12/14 05:46:00;;;;;;;21.00;10.70;;;0.00;99.90;;;;;;5021896;28;20029;-68
2022/12/14 05:48:26;;;;;;;27.92;11.88;;;0.00;99.90;;;;;;5022756;28;20482;-68
2022/12/14 05:50:52;;;;;;;27.08;10.82;;;0.00;99.90;;;;;;5032892;28;20025;-68
2022/12/14 05:53:18;;;;;;;21.90;10.45;;;0.00;99.90;;;;;;5023631;28;20025;-68
2022/12/14 05:55:47;;;;;;;21.65;11.10;;;0.00;99.90;;;;;;5022214;28;20026;-68
2022/12/14 05:58:13;;;;;;;21.05;11.18;;;0.00;99.90;;;;;;5026344;28;20025;-68
2022/12/14 06:00:38;;;;;;;22.80;10.95;;;0.00;99.90;;;;;;5028448;28;20028;-68
2022/12/14 06:03:04;;;;;;;25.33;12.07;;;0.00;99.90;;;;;;5032169;28;20509;-68
2022/12/14 06:05:30;;;;;;;21.27;10.90;;;0.00;99.90;;;;;;5032437;28;20022;-68
2022/12/14 06:07:56;;;;;;;31.48;12.35;;;0.00;99.90;;;;;;5023472;28;20415;-68
2022/12/14 06:10:22;;;;;;;34.35;11.80;;;0.00;99.90;;;;;;5026513;28;20025;-68
2022/12/14 06:12:47;;;;;;;26.50;10.90;;;0.00;99.90;;;;;;5027056;28;20429;-68
2022/12/14 06:15:13;;;;;;;23.65;10.98;;;0.00;99.90;;;;;;5031322;28;20112;-68
2022/12/14 06:17:45;;;;;;;25.38;12.23;;;0.00;99.90;;;;;;5028164;28;20057;-68
2022/12/14 06:20:12;;;;;;;24.77;10.27;;;0.00;99.90;;;;;;5027596;28;20029;-68
2022/12/14 06:22:37;;;;;;;23.48;12.77;;;0.00;99.90;;;;;;5021913;28;20018;-68
2022/12/14 06:25:03;;;;;;;25.70;12.63;;;0.00;99.90;;;;;;5026208;28;20384;-68
2022/12/14 06:27:29;;;;;;;27.75;11.57;;;0.00;99.90;;;;;;5022350;28;20036;-68
2022/12/14 06:29:55;;;;;;;26.58;12.40;;;0.00;99.90;;;;;;5018664;28;20029;-68
2022/12/14 06:32:20;;;;;;;23.15;12.63;;;0.00;99.90;;;;;;5026226;28;20021;-68
2022/12/14 06:34:46;;;;;;;25.95;12.50;;;0.00;99.90;;;;;;5020294;28;20474;-68
2022/12/14 06:37:12;;;;;;;26.38;13.13;;;0.00;99.90;;;;;;5030288;28;20026;-68
2022/12/14 06:39:38;;;;;;;24.88;12.50;;;0.00;99.90;;;;;;5020181;28;20037;-68
2022/12/14 06:42:04;;;;;;;25.95;12.23;;;0.00;99.90;;;;;;5027302;28;20394;-68
2022/12/14 06:44:30;;;;;;;26.20;12.77;;;-0.10;99.90;;;;;;5026821;28;20025;-68
2022/12/14 06:46:56;;;;;;;23.95;12.02;;;-0.10;99.90;;;;;;5021497;28;20085;-68
2022/12/14 06:49:22;;;;;;;24.48;12.80;;;-0.10;99.90;;;;;;5021374;28;20464;-68
2022/12/14 06:51:48;;;;;;;22.63;11.93;;;-0.10;99.90;;;;;;5029578;28;20386;-68
2022/12/14 06:54:14;;;;;;;23.77;11.48;;;-0.10;99.90;;;;;;5025483;28;20386;-68
2022/12/14 06:56:42;;;;;;;25.58;12.05;;;-0.10;99.90;;;;;;5023282;28;20030;-68
2022/12/14 06:59:08;;;;;;;29.38;12.30;;;-0.10;99.90;;;;;;5026901;28;20065;-68
2022/12/14 07:01:34;;;;;;;23.25;12.38;;;-0.10;99.90;;;;;;5024955;28;20100;-68
2022/12/14 07:04:00;;;;;;;25.27;11.95;;;-0.10;99.90;;;;;;5025589;28;20097;-68
2022/12/14 07:06:30;;;;;;;21.30;11.70;;;-0.10;99.90;;;;;;5031068;28;20029;-68
2022/12/14 07:08:57;;;;;;;25.98;12.43;;;-0.10;99.90;;;;;;5022481;28;20034;-68
2022/12/14 07:11:24;;;;;;;26.02;12.50;;;-0.10;99.90;;;;;;5024389;28;20154;-67
2022/12/14 07:13:50;;;;;;;28.15;12.95;;;0.00;99.90;;;;;;5028743;28;20183;-67
2022/12/14 07:16:28;;;;;;;29.60;14.02;;;-0.10;99.90;;;;;;5027648;28;20034;-68
2022/12/14 07:18:54;;;;;;;40.83;14.05;;;0.00;99.90;;;;;;5020262;28;20474;-68
2022/12/14 07:21:21;;;;;;;28.10;12.35;;;0.00;99.90;;;;;;5043040;28;20032;-68
2022/12/14 07:23:48;;;;;;;26.88;13.25;;;0.00;99.90;;;;;;5029799;28;20032;-68
2022/12/14 07:26:19;;;;;;;27.77;12.77;;;0.00;99.90;;;;;;5026787;28;20025;-68
2022/12/14 07:28:45;;;;;;;27.42;12.52;;;0.00;99.90;;;;;;5023148;28;20048;-68
2022/12/14 07:31:19;;;;;;;23.13;12.35;;;0.00;99.90;;;;;;5017389;28;20017;-68
2022/12/14 07:33:45;;;;;;;33.08;11.77;;;-0.10;99.90;;;;;;5028220;28;20022;-68
2022/12/14 07:36:16;;;;;;;23.27;11.63;;;-0.10;99.90;;;;;;5025308;28;20076;-68
2022/12/14 07:38:43;;;;;;;24.50;11.98;;;-0.10;99.90;;;;;;5026211;28;20162;-68
2022/12/14 07:41:12;;;;;;;23.35;11.20;;;-0.10;99.90;;;;;;5026416;28;20026;-68
2022/12/14 07:43:39;;;;;;;26.80;12.35;;;-0.10;99.90;;;;;;5029516;28;20026;-68
2022/12/14 07:46:08;;;;;;;23.30;11.25;;;-0.10;99.90;;;;;;5055789;28;20678;-68
2022/12/14 07:48:35;;;;;;;26.48;12.63;;;-0.10;99.90;;;;;;5030249;28;20025;-68
2022/12/14 07:51:03;;;;;;;24.52;12.70;;;-0.10;99.90;;;;;;5028905;28;20029;-68
2022/12/14 07:53:29;;;;;;;47.35;16.73;;;0.00;99.90;;;;;;5025688;28;20036;-67
2022/12/14 07:55:54;;;;;;;33.00;14.20;;;-0.10;99.90;;;;;;5030351;28;20116;-68
2022/12/14 07:58:20;;;;;;;24.40;12.80;;;-0.10;99.90;;;;;;5028169;28;20029;-67
2022/12/14 08:00:47;;;;;;;23.13;12.02;;;-0.10;99.90;;;;;;5030147;28;20061;-68
2022/12/14 08:03:12;;;;;;;23.27;12.55;;;-0.10;99.90;;;;;;5028453;28;20040;-68
2022/12/14 08:05:39;;;;;;;25.42;12.38;;;-0.10;99.90;;;;;;5031757;28;20108;-67
2022/12/14 08:08:04;;;;;;;26.90;12.18;;;-0.10;99.90;;;;;;5026139;28;20516;-66
2022/12/14 08:10:31;;;;;;;35.05;13.73;;;0.00;99.90;;;;;;5033712;28;20041;-67
2022/12/14 08:12:56;;;;;;;24.40;12.02;;;0.00;99.90;;;;;;5031360;28;20026;-67
2022/12/14 08:15:22;;;;;;;22.67;11.82;;;0.00;99.90;;;;;;5029215;28;20045;-66
2022/12/14 08:17:47;;;;;;;20.30;10.73;;;0.00;99.90;;;;;;5023557;28;20030;-67
2022/12/14 08:20:13;;;;;;;27.63;12.27;;;0.00;99.90;;;;;;5027418;28;20025;-67
2022/12/14 08:22:39;;;;;;;24.02;11.90;;;0.10;99.90;;;;;;5019023;28;20474;-67
2022/12/14 08:25:05;;;;;;;24.85;11.45;;;0.10;99.90;;;;;;5028782;28;20034;-67
2022/12/14 08:27:30;;;;;;;24.00;11.60;;;0.10;99.90;;;;;;5027457;28;20030;-67
2022/12/14 08:29:56;;;;;;;21.65;10.82;;;0.10;99.90;;;;;;5029721;28;20508;-67
2022/12/14 08:32:21;;;;;;;28.40;11.85;;;0.00;99.90;;;;;;5031262;28;20103;-67
2022/12/14 08:34:47;;;;;;;74.28;13.40;;;0.00;99.90;;;;;;5024722;28;20033;-67
2022/12/14 08:37:12;;;;;;;36.72;11.55;;;0.00;99.90;;;;;;5026355;28;20474;-68
2022/12/14 08:39:38;;;;;;;26.95;11.63;;;0.00;99.90;;;;;;5032975;28;20026;-67
2022/12/14 08:42:03;;;;;;;22.70;11.40;;;-0.10;99.90;;;;;;5031240;28;20517;-68
2022/12/14 08:44:29;;;;;;;24.10;11.70;;;-0.10;99.90;;;;;;5031406;28;20417;-68
2022/12/14 08:46:55;;;;;;;28.05;11.88;;;-0.10;99.90;;;;;;5024101;28;20434;-68
2022/12/14 08:49:20;;;;;;;27.02;11.93;;;-0.20;99.90;;;;;;5030816;28;20104;-67
2022/12/14 08:51:46;;;;;;;24.40;11.30;;;-0.30;99.90;;;;;;5024388;28;20022;-67
2022/12/14 08:54:11;;;;;;;24.92;11.07;;;-0.30;99.90;;;;;;5023917;28;20022;-67
2022/12/14 08:56:37;;;;;;;24.38;11.82;;;-0.30;99.90;;;;;;5032869;28;20053;-68
2022/12/14 08:59:03;;;;;;;21.13;12.30;;;-0.30;99.90;;;;;;4992373;28;20505;-68
2022/12/14 09:01:29;;;;;;;26.65;11.23;;;-0.30;99.90;;;;;;5019401;28;20025;-68
2022/12/14 09:04:00;;;;;;;25.95;11.25;;;-0.30;99.90;;;;;;5024641;28;20108;-68
2022/12/14 09:06:26;;;;;;;23.85;11.18;;;-0.30;99.90;;;;;;5023173;28;20018;-68
2022/12/14 09:08:53;;;;;;;28.67;11.70;;;-0.40;99.90;;;;;;5022415;28;20041;-68
2022/12/14 09:11:19;;;;;;;39.08;11.75;;;-0.40;99.90;;;;;;5022831;28;20021;-68
2022/12/14 09:13:46;;;;;;;24.08;10.95;;;-0.40;99.90;;;;;;5019596;28;20595;-68
2022/12/14 09:16:16;;;;;;;22.60;12.00;;;-0.40;99.90;;;;;;5024065;28;20037;-68
2022/12/14 09:18:42;;;;;;;27.30;11.25;;;-0.40;99.90;;;;;;5022688;28;20111;-68
2022/12/14 09:21:08;;;;;;;28.77;12.07;;;-0.50;99.90;;;;;;5024655;28;22292;-68
2022/12/14 09:23:34;;;;;;;25.88;10.85;;;-0.60;99.90;;;;;;5024858;28;20036;-68
2022/12/14 09:26:02;;;;;;;52.53;13.65;;;-0.70;99.90;;;;;;5022368;28;20025;-68
2022/12/14 09:28:29;;;;;;;27.63;11.13;;;-0.70;99.90;;;;;;5022341;28;20041;-68
2022/12/14 09:30:56;;;;;;;29.90;12.15;;;-0.70;99.90;;;;;;5021512;28;20037;-67
2022/12/14 09:33:22;;;;;;;22.95;11.73;;;-0.70;99.90;;;;;;5022962;28;20540;-68
2022/12/14 09:35:48;;;;;;;29.25;12.27;;;-0.60;99.90;;;;;;5022936;28;20037;-67
2022/12/14 09:38:14;;;;;;;30.40;12.27;;;-0.50;99.90;;;;;;5023834;28;20078;-67
2022/12/14 09:40:44;;;;;;;29.42;12.45;;;-0.40;99.90;;;;;;5020353;28;20078;-67
2022/12/14 09:43:26;;;;;;;25.50;11.90;;;-0.30;99.90;;;;;;5021727;28;20018;-68
2022/12/14 09:45:58;;;;;;;27.42;11.57;;;-0.20;99.90;;;;;;5024870;28;20034;-67
2022/12/14 09:48:24;;;;;;;21.63;10.73;;;-0.20;99.90;;;;;;5019658;28;20063;-68
2022/12/14 09:50:51;;;;;;;26.60;11.18;;;-0.10;99.90;;;;;;5020789;28;20034;-68
2022/12/14 09:53:19;;;;;;;31.27;11.25;;;0.00;99.90;;;;;;5020112;28;20041;-68
2022/12/14 09:55:50;;;;;;;26.42;11.32;;;0.00;99.90;;;;;;5022945;28;20156;-68
2022/12/14 09:58:28;;;;;;;29.30;11.23;;;0.00;99.90;;;;;;5019109;28;20029;-68
2022/12/14 10:01:06;;;;;;;25.15;11.02;;;0.00;99.90;;;;;;5023251;28;20087;-68
2022/12/14 10:03:59;;;;;;;23.00;10.52;;;0.10;99.90;;;;;;5023197;28;20105;-68
2022/12/14 10:06:52;;;;;;;30.52;11.80;;;0.20;99.90;;;;;;5023651;28;20043;-67
2022/12/14 10:09:34;;;;;;;33.78;10.77;;;0.20;99.90;;;;;;5023458;28;20029;-68
2022/12/14 10:12:37;;;;;;;25.98;11.00;;;0.20;99.90;;;;;;5020769;28;20025;-68
2022/12/14 10:15:06;;;;;;;22.80;11.15;;;0.20;99.90;;;;;;5022371;28;20456;-67
2022/12/14 10:17:57;;;;;;;20.05;10.52;;;0.20;99.90;;;;;;5020305;28;20034;-68
2022/12/14 10:20:39;;;;;;;25.20;11.52;;;0.20;99.90;;;;;;5017996;28;20037;-68
2022/12/14 10:23:12;;;;;;;22.77;10.30;;;0.20;99.90;;;;;;5019737;28;20104;-68
2022/12/14 10:25:39;;;;;;;25.23;11.25;;;0.20;99.90;;;;;;5021701;28;20125;-68
2022/12/14 10:28:07;;;;;;;24.77;12.27;;;0.20;99.90;;;;;;5020501;28;20095;-68
2022/12/14 10:30:34;;;;;;;44.22;12.75;;;0.30;99.90;;;;;;5019243;28;20109;-68
2022/12/14 10:33:22;;;;;;;50.55;14.55;;;0.30;99.90;;;;;;5019739;28;20481;-68
2022/12/14 10:35:52;;;;;;;55.80;13.73;;;0.30;99.90;;;;;;5022298;28;20092;-68
2022/12/14 10:38:32;;;;;;;41.95;12.40;;;0.30;99.90;;;;;;5021226;28;20019;-67
2022/12/14 10:41:24;;;;;;;55.47;13.20;;;0.40;99.90;;;;;;5019537;28;20038;-68
2022/12/14 10:44:02;;;;;;;41.55;12.23;;;0.40;99.90;;;;;;5020078;28;20030;-68
2022/12/14 10:46:45;;;;;;;25.10;10.52;;;0.40;99.90;;;;;;5017817;28;20032;-68
2022/12/14 10:49:13;;;;;;;;;;;0.30;99.90;;;;;;5020734;28;20045;-68
2022/12/14 10:51:46;;;;;;;24.90;11.38;;;0.30;99.90;;;;;;5022034;28;19917;-68
2022/12/14 10:54:43;;;;;;;21.80;10.88;;;0.30;99.90;;;;;;5023489;28;20122;-69
2022/12/14 10:57:16;;;;;;;47.55;12.52;;;0.30;99.90;;;;;;5021890;28;20426;-68
2022/12/14 10:59:42;;;;;;;36.90;12.50;;;0.40;99.90;;;;;;5028555;28;20037;-68
2022/12/14 11:02:17;;;;;;;24.25;10.65;;;0.30;99.90;;;;;;5029354;28;20069;-67
2022/12/14 11:05:13;;;;;;;28.05;10.60;;;0.20;99.90;;;;;;5024598;28;20431;-68
2022/12/14 11:07:42;;;;;;;23.15;10.80;;;0.30;99.90;;;;;;5025054;28;20029;-68
2022/12/14 11:10:23;;;;;;;44.50;11.70;;;0.40;99.90;;;;;;5018402;28;20084;-68
2022/12/14 11:13:00;;;;;;;41.35;10.93;;;0.40;99.90;;;;;;5029896;28;20025;-67
2022/12/14 11:15:30;;;;;;;26.75;11.38;;;0.40;99.90;;;;;;5027259;28;20069;-68
2022/12/14 11:18:04;;;;;;;35.25;11.77;;;0.50;99.90;;;;;;5028799;28;20026;-68
2022/12/14 11:20:31;;;;;;;21.75;11.00;;;0.50;99.90;;;;;;5027440;28;20026;-68
2022/12/14 11:23:05;;;;;;;23.98;11.90;;;0.50;99.90;;;;;;5032180;28;20028;-68
2022/12/14 11:25:43;;;;;;;44.67;12.70;;;0.50;99.90;;;;;;5027404;28;20027;-68
2022/12/14 11:28:44;;;;;;;26.65;11.10;;;0.60;99.90;;;;;;5034031;28;20049;-68
2022/12/14 11:31:19;;;;;;;23.95;11.55;;;0.70;99.90;;;;;;5027104;28;20343;-67
2022/12/14 11:33:54;;;;;;;25.70;11.30;;;0.80;99.90;;;;;;5022876;28;20029;-68
2022/12/14 11:36:40;;;;;;;31.58;10.88;;;0.90;99.90;;;;;;5034277;28;20026;-67
2022/12/14 11:39:12;;;;;;;26.25;11.90;;;0.80;99.90;;;;;;5031809;28;20425;-68
2022/12/14 11:41:45;;;;;;;23.00;10.90;;;0.90;99.90;;;;;;5035087;28;20026;-68
2022/12/14 11:44:24;;;;;;;23.20;11.85;;;0.90;99.90;;;;;;5034279;28;20431;-68
2022/12/14 11:47:01;;;;;;;22.90;11.70;;;0.90;99.90;;;;;;5029417;28;20034;-68
2022/12/14 11:49:41;;;;;;;22.10;11.48;;;0.90;99.90;;;;;;5026622;28;20392;-67
2022/12/14 11:52:37;;;;;;;23.60;10.88;;;0.80;99.90;;;;;;5026890;28;20053;-68
2022/12/14 11:55:16;;;;;;;25.85;12.07;;;1.00;99.90;;;;;;5023989;28;20029;-67
2022/12/14 11:57:51;;;;;;;32.38;13.93;;;1.00;99.90;;;;;;5023033;28;20017;-68
2022/12/14 12:00:27;;;;;;;25.58;13.02;;;1.00;99.90;;;;;;5029626;28;20509;-68
2022/12/14 12:03:17;;;;;;;27.90;14.10;;;0.90;99.90;;;;;;5023897;28;20018;-67
2022/12/14 12:05:43;;;;;;;31.85;13.85;;;1.00;99.90;;;;;;5026947;28;20029;-68
2022/12/14 12:08:25;;;;;;;37.22;13.18;;;0.90;99.90;;;;;;5026598;28;20021;-68
2022/12/14 12:10:54;;;;;;;25.03;12.97;;;1.00;99.90;;;;;;5022001;28;20547;-68
2022/12/14 12:13:27;;;;;;;29.50;12.18;;;1.00;99.90;;;;;;5025532;28;20081;-68
2022/12/14 12:16:03;;;;;;;23.80;12.40;;;1.00;99.90;;;;;;5027451;28;20060;-68
2022/12/14 12:18:48;;;;;;;23.33;11.90;;;1.10;99.90;;;;;;5026752;28;20493;-67
2022/12/14 12:21:28;;;;;;;23.60;12.35;;;1.10;99.90;;;;;;5025305;28;20028;-68
2022/12/14 12:24:06;;;;;;;24.35;11.50;;;1.10;99.90;;;;;;5023992;28;20017;-68
2022/12/14 12:26:53;;;;;;;31.42;13.80;;;1.10;99.90;;;;;;5028570;28;20055;-67
2022/12/14 12:29:39;;;;;;;20.50;11.48;;;1.10;99.90;;;;;;5027333;28;20073;-67
2022/12/14 12:32:22;;;;;;;24.15;12.85;;;1.10;99.90;;;;;;5027554;28;20334;-66
2022/12/14 12:35:01;;;;;;;25.05;12.55;;;1.10;99.90;;;;;;5023830;28;20060;-67
2022/12/14 12:37:35;;;;;;;25.92;13.25;;;1.10;99.90;;;;;;5025784;28;20495;-67
2022/12/14 12:40:24;;;;;;;28.95;12.80;;;1.10;99.90;;;;;;5031986;28;20022;-67
2022/12/14 12:43:03;;;;;;;23.83;11.73;;;1.10;99.90;;;;;;5022082;28;20124;-67
2022/12/14 12:45:46;;;;;;;37.28;12.73;;;1.10;99.90;;;;;;5025132;28;20034;-67
2022/12/14 12:48:24;;;;;;;24.92;12.32;;;1.20;99.90;;;;;;5023642;28;20117;-67
2022/12/14 12:50:54;;;;;;;36.13;13.55;;;1.20;99.90;;;;;;5022587;28;20030;-66
2022/12/14 12:53:34;;;;;;;32.08;13.73;;;1.20;99.90;;;;;;5028048;28;20521;-66
2022/12/14 12:56:12;;;;;;;26.92;12.02;;;1.20;99.90;;;;;;5027213;28;20032;-66
2022/12/14 12:58:39;;;;;;;26.67;13.55;;;1.20;99.90;;;;;;5026186;28;20037;-67
2022/12/14 13:01:21;;;;;;;27.08;14.00;;;1.20;99.90;;;;;;5026878;28;20028;-66
2022/12/14 13:03:51;;;;;;;21.30;12.50;;;1.30;99.90;;;;;;5028756;28;20041;-66
2022/12/14 13:06:31;;;;;;;26.55;13.98;;;1.30;99.90;;;;;;5026612;28;20032;-67
2022/12/14 13:09:08;;;;;;;28.83;14.05;;;1.30;99.90;;;;;;5030186;28;20037;-66
2022/12/14 13:11:38;;;;;;;24.25;12.68;;;1.20;99.90;;;;;;5025233;28;20482;-66
2022/12/14 13:14:29;;;;;;;22.20;11.93;;;1.20;99.90;;;;;;5025373;28;20380;-67
2022/12/14 13:16:58;;;;;;;25.45;12.68;;;1.20;99.90;;;;;;5021337;28;20052;-66